sensor_id;sensor_type;location;lat;lon;timestamp;P1;durP1;ratioP1;P2;durP2;ratioP2
64500;SDS011;50874;24.150;-110.320;2022-07-03T00:01:41;10.50;;;2.88;;
64500;SDS011;50874;24.150;-110.320;2022-07-03T00:04:08;9.02;;;2.30;;
64500;SDS011;50874;24.150;-110.320;2022-07-03T00:06:34;17.55;;;2.78;;
64500;SDS011;50874;24.150;-110.320;2022-07-03T00:09:03;13.93;;;2.75;;
64500;SDS011;50874;24.150;-110.320;2022-07-03T00:11:30;15.27;;;3.65;;
64500;SDS011;50874;24.150;-110.320;2022-07-03T00:13:58;9.88;;;2.55;;
64500;SDS011;50874;24.150;-110.320;2022-07-03T00:16:25;9.77;;;2.80;;
64500;SDS011;50874;24.150;-110.320;2022-07-03T00:18:51;10.27;;;2.42;;
64500;SDS011;50874;24.150;-110.320;2022-07-03T00:21:29;10.52;;;2.67;;
64500;SDS011;50874;24.150;-110.320;2022-07-03T00:24:20;9.93;;;2.85;;
64500;SDS011;50874;24.150;-110.320;2022-07-03T00:26:51;12.07;;;2.90;;
64500;SDS011;50874;24.150;-110.320;2022-07-03T00:29:22;20.52;;;3.22;;
64500;SDS011;50874;24.150;-110.320;2022-07-03T00:31:50;12.98;;;2.97;;
64500;SDS011;50874;24.150;-110.320;2022-07-03T00:34:17;11.35;;;2.70;;
64500;SDS011;50874;24.150;-110.320;2022-07-03T00:36:45;19.60;;;3.22;;
64500;SDS011;50874;24.150;-110.320;2022-07-03T00:39:12;10.88;;;3.10;;
64500;SDS011;50874;24.150;-110.320;2022-07-03T00:41:39;28.83;;;5.85;;
64500;SDS011;50874;24.150;-110.320;2022-07-03T00:44:09;16.35;;;3.17;;
64500;SDS011;50874;24.150;-110.320;2022-07-03T00:46:37;17.50;;;3.42;;
64500;SDS011;50874;24.150;-110.320;2022-07-03T00:49:06;12.20;;;3.45;;
64500;SDS011;50874;24.150;-110.320;2022-07-03T00:51:37;16.55;;;5.05;;
64500;SDS011;50874;24.150;-110.320;2022-07-03T00:54:08;19.23;;;4.15;;
64500;SDS011;50874;24.150;-110.320;2022-07-03T00:56:39;17.85;;;4.45;;
64500;SDS011;50874;24.150;-110.320;2022-07-03T00:59:06;22.40;;;4.55;;
64500;SDS011;50874;24.150;-110.320;2022-07-03T01:01:35;20.60;;;4.78;;
64500;SDS011;50874;24.150;-110.320;2022-07-03T01:04:07;14.75;;;4.10;;
64500;SDS011;50874;24.150;-110.320;2022-07-03T01:07:28;15.63;;;4.28;;
64500;SDS011;50874;24.150;-110.320;2022-07-03T01:09:43;12.98;;;4.05;;
64500;SDS011;50874;24.150;-110.320;2022-07-03T01:18:29;15.45;;;4.20;;
64500;SDS011;50874;24.150;-110.320;2022-07-03T01:21:28;15.02;;;4.00;;
64500;SDS011;50874;24.150;-110.320;2022-07-03T01:26:49;15.95;;;3.97;;
64500;SDS011;50874;24.150;-110.320;2022-07-03T01:29:30;22.48;;;4.60;;
64500;SDS011;50874;24.150;-110.320;2022-07-03T01:32:03;12.13;;;3.42;;
64500;SDS011;50874;24.150;-110.320;2022-07-03T01:34:33;18.52;;;3.92;;
64500;SDS011;50874;24.150;-110.320;2022-07-03T01:37:02;16.58;;;3.70;;
64500;SDS011;50874;24.150;-110.320;2022-07-03T01:39:30;20.88;;;5.13;;
64500;SDS011;50874;24.150;-110.320;2022-07-03T01:41:56;18.85;;;4.30;;
64500;SDS011;50874;24.150;-110.320;2022-07-03T01:44:26;14.70;;;4.75;;
64500;SDS011;50874;24.150;-110.320;2022-07-03T01:46:54;16.02;;;4.13;;
64500;SDS011;50874;24.150;-110.320;2022-07-03T01:49:25;14.05;;;3.97;;
64500;SDS011;50874;24.150;-110.320;2022-07-03T01:51:53;13.75;;;4.00;;
64500;SDS011;50874;24.150;-110.320;2022-07-03T01:54:24;29.33;;;5.28;;
64500;SDS011;50874;24.150;-110.320;2022-07-03T01:56:52;12.82;;;3.90;;
64500;SDS011;50874;24.150;-110.320;2022-07-03T01:59:19;13.07;;;3.95;;
64500;SDS011;50874;24.150;-110.320;2022-07-03T02:02:01;15.02;;;4.65;;
64500;SDS011;50874;24.150;-110.320;2022-07-03T02:09:50;20.10;;;4.03;;
64500;SDS011;50874;24.150;-110.320;2022-07-03T02:12:27;16.85;;;4.88;;
64500;SDS011;50874;24.150;-110.320;2022-07-03T02:15:21;23.10;;;5.07;;
64500;SDS011;50874;24.150;-110.320;2022-07-03T02:17:54;21.60;;;4.93;;
64500;SDS011;50874;24.150;-110.320;2022-07-03T02:20:22;13.95;;;4.38;;
64500;SDS011;50874;24.150;-110.320;2022-07-03T02:22:56;22.88;;;5.32;;
64500;SDS011;50874;24.150;-110.320;2022-07-03T02:25:34;21.80;;;5.10;;
64500;SDS011;50874;24.150;-110.320;2022-07-03T02:28:21;24.90;;;5.35;;
64500;SDS011;50874;24.150;-110.320;2022-07-03T02:31:01;24.08;;;5.50;;
64500;SDS011;50874;24.150;-110.320;2022-07-03T02:33:30;23.25;;;5.93;;
64500;SDS011;50874;24.150;-110.320;2022-07-03T02:35:58;17.88;;;4.75;;
64500;SDS011;50874;24.150;-110.320;2022-07-03T02:38:25;14.93;;;4.35;;
64500;SDS011;50874;24.150;-110.320;2022-07-03T02:44:01;17.17;;;4.40;;
64500;SDS011;50874;24.150;-110.320;2022-07-03T02:46:47;21.77;;;5.30;;
64500;SDS011;50874;24.150;-110.320;2022-07-03T02:54:58;15.43;;;4.93;;
64500;SDS011;50874;24.150;-110.320;2022-07-03T02:57:36;20.50;;;5.45;;
64500;SDS011;50874;24.150;-110.320;2022-07-03T03:00:10;24.00;;;6.05;;
64500;SDS011;50874;24.150;-110.320;2022-07-03T03:05:49;19.85;;;5.50;;
64500;SDS011;50874;24.150;-110.320;2022-07-03T03:11:07;17.67;;;5.22;;
64500;SDS011;50874;24.150;-110.320;2022-07-03T03:13:45;23.55;;;6.03;;
64500;SDS011;50874;24.150;-110.320;2022-07-03T03:16:15;18.75;;;6.40;;
64500;SDS011;50874;24.150;-110.320;2022-07-03T03:18:42;17.45;;;5.57;;
64500;SDS011;50874;24.150;-110.320;2022-07-03T03:21:10;20.90;;;5.82;;
64500;SDS011;50874;24.150;-110.320;2022-07-03T03:26:20;17.63;;;5.68;;
64500;SDS011;50874;24.150;-110.320;2022-07-03T03:28:49;23.67;;;6.22;;
64500;SDS011;50874;24.150;-110.320;2022-07-03T03:31:16;19.38;;;5.32;;
64500;SDS011;50874;24.150;-110.320;2022-07-03T03:33:47;30.15;;;5.88;;
64500;SDS011;50874;24.150;-110.320;2022-07-03T03:36:15;21.83;;;5.70;;
64500;SDS011;50874;24.150;-110.320;2022-07-03T03:38:43;16.10;;;4.70;;
64500;SDS011;50874;24.150;-110.320;2022-07-03T03:41:13;30.10;;;7.18;;
64500;SDS011;50874;24.150;-110.320;2022-07-03T03:43:40;29.23;;;6.65;;
64500;SDS011;50874;24.150;-110.320;2022-07-03T03:46:06;29.50;;;6.60;;
64500;SDS011;50874;24.150;-110.320;2022-07-03T03:48:33;21.83;;;5.72;;
64500;SDS011;50874;24.150;-110.320;2022-07-03T03:51:01;23.20;;;5.97;;
64500;SDS011;50874;24.150;-110.320;2022-07-03T03:53:29;23.52;;;5.38;;
64500;SDS011;50874;24.150;-110.320;2022-07-03T03:56:06;19.77;;;6.13;;
64500;SDS011;50874;24.150;-110.320;2022-07-03T03:58:35;23.80;;;6.32;;
64500;SDS011;50874;24.150;-110.320;2022-07-03T04:01:03;22.92;;;5.78;;
64500;SDS011;50874;24.150;-110.320;2022-07-03T04:03:31;20.88;;;5.68;;
64500;SDS011;50874;24.150;-110.320;2022-07-03T04:05:58;22.13;;;5.45;;
64500;SDS011;50874;24.150;-110.320;2022-07-03T04:08:25;27.80;;;6.95;;
64500;SDS011;50874;24.150;-110.320;2022-07-03T04:10:53;30.73;;;6.65;;
64500;SDS011;50874;24.150;-110.320;2022-07-03T04:13:20;27.52;;;6.45;;
64500;SDS011;50874;24.150;-110.320;2022-07-03T04:15:47;24.30;;;6.07;;
64500;SDS011;50874;24.150;-110.320;2022-07-03T04:18:15;24.48;;;6.40;;
64500;SDS011;50874;24.150;-110.320;2022-07-03T04:20:41;23.73;;;5.75;;
64500;SDS011;50874;24.150;-110.320;2022-07-03T04:23:08;25.38;;;6.40;;
64500;SDS011;50874;24.150;-110.320;2022-07-03T04:25:35;22.90;;;5.75;;
64500;SDS011;50874;24.150;-110.320;2022-07-03T04:28:01;23.02;;;5.97;;
64500;SDS011;50874;24.150;-110.320;2022-07-03T04:30:28;21.52;;;5.15;;
64500;SDS011;50874;24.150;-110.320;2022-07-03T04:32:54;21.20;;;6.15;;
64500;SDS011;50874;24.150;-110.320;2022-07-03T04:35:21;30.35;;;6.13;;
64500;SDS011;50874;24.150;-110.320;2022-07-03T04:37:48;23.08;;;6.25;;
64500;SDS011;50874;24.150;-110.320;2022-07-03T04:40:14;22.08;;;6.20;;
64500;SDS011;50874;24.150;-110.320;2022-07-03T04:42:40;24.60;;;6.30;;
64500;SDS011;50874;24.150;-110.320;2022-07-03T04:45:07;22.27;;;6.13;;
64500;SDS011;50874;24.150;-110.320;2022-07-03T04:47:34;18.20;;;5.53;;
64500;SDS011;50874;24.150;-110.320;2022-07-03T04:50:00;25.08;;;6.30;;
64500;SDS011;50874;24.150;-110.320;2022-07-03T04:52:27;21.92;;;6.45;;
64500;SDS011;50874;24.150;-110.320;2022-07-03T04:54:54;19.75;;;5.65;;
64500;SDS011;50874;24.150;-110.320;2022-07-03T04:57:20;24.90;;;5.88;;
64500;SDS011;50874;24.150;-110.320;2022-07-03T04:59:47;18.13;;;5.20;;
64500;SDS011;50874;24.150;-110.320;2022-07-03T05:02:13;21.10;;;5.68;;
64500;SDS011;50874;24.150;-110.320;2022-07-03T05:04:40;20.90;;;6.20;;
64500;SDS011;50874;24.150;-110.320;2022-07-03T05:07:06;29.10;;;6.43;;
64500;SDS011;50874;24.150;-110.320;2022-07-03T05:09:33;24.58;;;6.53;;
64500;SDS011;50874;24.150;-110.320;2022-07-03T05:11:59;22.33;;;6.30;;
64500;SDS011;50874;24.150;-110.320;2022-07-03T05:14:25;18.15;;;6.07;;
64500;SDS011;50874;24.150;-110.320;2022-07-03T05:16:52;21.00;;;6.25;;
64500;SDS011;50874;24.150;-110.320;2022-07-03T05:19:18;22.30;;;5.80;;
64500;SDS011;50874;24.150;-110.320;2022-07-03T05:21:45;23.35;;;6.22;;
64500;SDS011;50874;24.150;-110.320;2022-07-03T05:24:11;24.33;;;6.20;;
64500;SDS011;50874;24.150;-110.320;2022-07-03T05:26:38;22.25;;;5.40;;
64500;SDS011;50874;24.150;-110.320;2022-07-03T05:29:04;20.80;;;5.55;;
64500;SDS011;50874;24.150;-110.320;2022-07-03T05:31:30;19.08;;;6.25;;
64500;SDS011;50874;24.150;-110.320;2022-07-03T05:33:57;24.00;;;5.93;;
64500;SDS011;50874;24.150;-110.320;2022-07-03T05:36:23;24.65;;;5.60;;
64500;SDS011;50874;24.150;-110.320;2022-07-03T05:38:50;26.13;;;5.32;;
64500;SDS011;50874;24.150;-110.320;2022-07-03T05:41:34;23.38;;;5.75;;
64500;SDS011;50874;24.150;-110.320;2022-07-03T05:44:01;17.38;;;5.75;;
64500;SDS011;50874;24.150;-110.320;2022-07-03T05:46:27;20.23;;;5.95;;
64500;SDS011;50874;24.150;-110.320;2022-07-03T05:48:54;20.30;;;6.80;;
64500;SDS011;50874;24.150;-110.320;2022-07-03T05:51:20;22.10;;;5.85;;
64500;SDS011;50874;24.150;-110.320;2022-07-03T05:53:47;21.92;;;6.18;;
64500;SDS011;50874;24.150;-110.320;2022-07-03T05:56:13;22.98;;;6.28;;
64500;SDS011;50874;24.150;-110.320;2022-07-03T05:58:39;23.35;;;5.78;;
64500;SDS011;50874;24.150;-110.320;2022-07-03T06:01:06;19.13;;;5.47;;
64500;SDS011;50874;24.150;-110.320;2022-07-03T06:03:33;27.83;;;6.75;;
64500;SDS011;50874;24.150;-110.320;2022-07-03T06:05:59;25.52;;;6.82;;
64500;SDS011;50874;24.150;-110.320;2022-07-03T06:08:26;24.63;;;6.03;;
64500;SDS011;50874;24.150;-110.320;2022-07-03T06:10:53;24.45;;;6.05;;
64500;SDS011;50874;24.150;-110.320;2022-07-03T06:13:20;22.17;;;5.28;;
64500;SDS011;50874;24.150;-110.320;2022-07-03T06:15:47;22.08;;;5.80;;
64500;SDS011;50874;24.150;-110.320;2022-07-03T06:18:13;27.85;;;6.90;;
64500;SDS011;50874;24.150;-110.320;2022-07-03T06:20:40;24.92;;;6.03;;
64500;SDS011;50874;24.150;-110.320;2022-07-03T06:23:06;21.13;;;5.43;;
64500;SDS011;50874;24.150;-110.320;2022-07-03T06:25:33;23.92;;;6.93;;
64500;SDS011;50874;24.150;-110.320;2022-07-03T06:27:59;23.95;;;6.43;;
64500;SDS011;50874;24.150;-110.320;2022-07-03T06:30:26;28.98;;;6.15;;
64500;SDS011;50874;24.150;-110.320;2022-07-03T06:32:52;26.02;;;6.03;;
64500;SDS011;50874;24.150;-110.320;2022-07-03T06:35:18;23.60;;;6.40;;
64500;SDS011;50874;24.150;-110.320;2022-07-03T06:37:45;20.63;;;5.95;;
64500;SDS011;50874;24.150;-110.320;2022-07-03T06:40:11;18.55;;;5.75;;
64500;SDS011;50874;24.150;-110.320;2022-07-03T06:42:38;24.63;;;6.50;;
64500;SDS011;50874;24.150;-110.320;2022-07-03T06:45:04;20.95;;;6.28;;
64500;SDS011;50874;24.150;-110.320;2022-07-03T06:47:36;21.23;;;6.13;;
64500;SDS011;50874;24.150;-110.320;2022-07-03T06:50:03;27.35;;;6.32;;
64500;SDS011;50874;24.150;-110.320;2022-07-03T06:52:30;26.33;;;6.22;;
64500;SDS011;50874;24.150;-110.320;2022-07-03T06:54:57;21.48;;;6.28;;
64500;SDS011;50874;24.150;-110.320;2022-07-03T06:57:23;21.23;;;6.15;;
64500;SDS011;50874;24.150;-110.320;2022-07-03T06:59:50;22.55;;;5.45;;
64500;SDS011;50874;24.150;-110.320;2022-07-03T07:02:16;29.40;;;5.85;;
64500;SDS011;50874;24.150;-110.320;2022-07-03T07:04:43;20.55;;;6.10;;
64500;SDS011;50874;24.150;-110.320;2022-07-03T07:07:09;21.15;;;5.90;;
64500;SDS011;50874;24.150;-110.320;2022-07-03T07:09:36;22.42;;;6.00;;
64500;SDS011;50874;24.150;-110.320;2022-07-03T07:12:02;22.50;;;6.00;;
64500;SDS011;50874;24.150;-110.320;2022-07-03T07:14:29;17.67;;;5.00;;
64500;SDS011;50874;24.150;-110.320;2022-07-03T07:16:56;27.77;;;6.07;;
64500;SDS011;50874;24.150;-110.320;2022-07-03T07:19:22;23.45;;;5.88;;
64500;SDS011;50874;24.150;-110.320;2022-07-03T07:21:49;30.25;;;5.72;;
64500;SDS011;50874;24.150;-110.320;2022-07-03T07:24:15;18.08;;;5.65;;
64500;SDS011;50874;24.150;-110.320;2022-07-03T07:26:42;32.35;;;7.18;;
64500;SDS011;50874;24.150;-110.320;2022-07-03T07:29:08;24.23;;;6.55;;
64500;SDS011;50874;24.150;-110.320;2022-07-03T07:31:35;18.73;;;6.15;;
64500;SDS011;50874;24.150;-110.320;2022-07-03T07:34:01;19.58;;;4.78;;
64500;SDS011;50874;24.150;-110.320;2022-07-03T07:36:29;25.48;;;5.32;;
64500;SDS011;50874;24.150;-110.320;2022-07-03T07:38:56;16.60;;;5.10;;
64500;SDS011;50874;24.150;-110.320;2022-07-03T07:41:23;22.88;;;5.13;;
64500;SDS011;50874;24.150;-110.320;2022-07-03T07:43:50;24.40;;;6.85;;
64500;SDS011;50874;24.150;-110.320;2022-07-03T07:46:16;19.48;;;5.65;;
64500;SDS011;50874;24.150;-110.320;2022-07-03T07:48:43;20.10;;;5.70;;
64500;SDS011;50874;24.150;-110.320;2022-07-03T07:51:10;22.13;;;5.18;;
64500;SDS011;50874;24.150;-110.320;2022-07-03T07:53:37;19.50;;;4.72;;
64500;SDS011;50874;24.150;-110.320;2022-07-03T07:56:03;29.10;;;6.00;;
64500;SDS011;50874;24.150;-110.320;2022-07-03T07:58:30;26.88;;;5.45;;
64500;SDS011;50874;24.150;-110.320;2022-07-03T08:00:56;21.60;;;5.45;;
64500;SDS011;50874;24.150;-110.320;2022-07-03T08:03:41;19.27;;;4.93;;
64500;SDS011;50874;24.150;-110.320;2022-07-03T08:06:26;15.70;;;4.88;;
64500;SDS011;50874;24.150;-110.320;2022-07-03T08:08:52;17.58;;;5.32;;
64500;SDS011;50874;24.150;-110.320;2022-07-03T08:11:19;18.45;;;5.47;;
64500;SDS011;50874;24.150;-110.320;2022-07-03T08:13:45;28.23;;;5.55;;
64500;SDS011;50874;24.150;-110.320;2022-07-03T08:16:12;17.27;;;5.18;;
64500;SDS011;50874;24.150;-110.320;2022-07-03T08:18:39;26.63;;;5.13;;
64500;SDS011;50874;24.150;-110.320;2022-07-03T08:21:06;16.83;;;4.82;;
64500;SDS011;50874;24.150;-110.320;2022-07-03T08:23:32;16.33;;;4.90;;
64500;SDS011;50874;24.150;-110.320;2022-07-03T08:25:59;21.52;;;5.43;;
64500;SDS011;50874;24.150;-110.320;2022-07-03T08:28:26;24.50;;;5.30;;
64500;SDS011;50874;24.150;-110.320;2022-07-03T08:30:53;26.10;;;5.80;;
64500;SDS011;50874;24.150;-110.320;2022-07-03T08:33:19;16.05;;;4.45;;
64500;SDS011;50874;24.150;-110.320;2022-07-03T08:35:46;22.95;;;5.32;;
64500;SDS011;50874;24.150;-110.320;2022-07-03T08:38:12;22.42;;;5.32;;
64500;SDS011;50874;24.150;-110.320;2022-07-03T08:40:39;22.50;;;6.18;;
64500;SDS011;50874;24.150;-110.320;2022-07-03T08:43:08;20.65;;;5.15;;
64500;SDS011;50874;24.150;-110.320;2022-07-03T08:45:35;19.83;;;5.90;;
64500;SDS011;50874;24.150;-110.320;2022-07-03T08:48:04;15.00;;;5.20;;
64500;SDS011;50874;24.150;-110.320;2022-07-03T08:50:33;26.60;;;5.50;;
64500;SDS011;50874;24.150;-110.320;2022-07-03T08:53:00;18.50;;;5.45;;
64500;SDS011;50874;24.150;-110.320;2022-07-03T08:55:28;26.02;;;6.18;;
64500;SDS011;50874;24.150;-110.320;2022-07-03T08:57:55;24.65;;;5.63;;
64500;SDS011;50874;24.150;-110.320;2022-07-03T09:00:24;18.65;;;5.13;;
64500;SDS011;50874;24.150;-110.320;2022-07-03T09:02:52;24.02;;;6.53;;
64500;SDS011;50874;24.150;-110.320;2022-07-03T09:05:20;24.70;;;5.85;;
64500;SDS011;50874;24.150;-110.320;2022-07-03T09:07:46;18.33;;;5.15;;
64500;SDS011;50874;24.150;-110.320;2022-07-03T09:10:17;19.63;;;5.70;;
64500;SDS011;50874;24.150;-110.320;2022-07-03T09:12:45;23.85;;;6.15;;
64500;SDS011;50874;24.150;-110.320;2022-07-03T09:15:13;20.27;;;5.50;;
64500;SDS011;50874;24.150;-110.320;2022-07-03T09:17:40;18.65;;;4.90;;
64500;SDS011;50874;24.150;-110.320;2022-07-03T09:20:21;24.80;;;6.53;;
64500;SDS011;50874;24.150;-110.320;2022-07-03T09:22:55;24.25;;;5.93;;
64500;SDS011;50874;24.150;-110.320;2022-07-03T09:25:59;21.90;;;6.00;;
64500;SDS011;50874;24.150;-110.320;2022-07-03T09:31:22;24.27;;;6.85;;
64500;SDS011;50874;24.150;-110.320;2022-07-03T09:33:51;23.30;;;5.75;;
64500;SDS011;50874;24.150;-110.320;2022-07-03T09:36:21;28.08;;;7.00;;
64500;SDS011;50874;24.150;-110.320;2022-07-03T09:38:49;24.88;;;6.63;;
64500;SDS011;50874;24.150;-110.320;2022-07-03T09:41:15;27.08;;;7.28;;
64500;SDS011;50874;24.150;-110.320;2022-07-03T09:43:42;23.23;;;6.22;;
64500;SDS011;50874;24.150;-110.320;2022-07-03T09:46:09;26.23;;;6.80;;
64500;SDS011;50874;24.150;-110.320;2022-07-03T09:48:37;22.33;;;7.38;;
64500;SDS011;50874;24.150;-110.320;2022-07-03T09:53:55;28.05;;;7.30;;
64500;SDS011;50874;24.150;-110.320;2022-07-03T09:56:27;19.10;;;7.03;;
64500;SDS011;50874;24.150;-110.320;2022-07-03T09:58:59;26.38;;;6.72;;
64500;SDS011;50874;24.150;-110.320;2022-07-03T10:01:35;30.35;;;7.50;;
64500;SDS011;50874;24.150;-110.320;2022-07-03T10:04:21;32.65;;;8.15;;
64500;SDS011;50874;24.150;-110.320;2022-07-03T10:11:49;23.70;;;6.93;;
64500;SDS011;50874;24.150;-110.320;2022-07-03T10:14:17;23.90;;;8.02;;
64500;SDS011;50874;24.150;-110.320;2022-07-03T10:16:45;27.30;;;7.05;;
64500;SDS011;50874;24.150;-110.320;2022-07-03T10:21:52;27.70;;;7.70;;
64500;SDS011;50874;24.150;-110.320;2022-07-03T10:24:22;22.35;;;7.70;;
64500;SDS011;50874;24.150;-110.320;2022-07-03T10:26:55;27.80;;;8.07;;
64500;SDS011;50874;24.150;-110.320;2022-07-03T10:29:23;34.83;;;7.45;;
64500;SDS011;50874;24.150;-110.320;2022-07-03T10:31:51;28.20;;;7.80;;
64500;SDS011;50874;24.150;-110.320;2022-07-03T10:34:19;36.58;;;7.93;;
64500;SDS011;50874;24.150;-110.320;2022-07-03T10:37:02;24.52;;;7.55;;
64500;SDS011;50874;24.150;-110.320;2022-07-03T10:42:26;27.05;;;7.93;;
64500;SDS011;50874;24.150;-110.320;2022-07-03T10:45:17;29.05;;;7.32;;
64500;SDS011;50874;24.150;-110.320;2022-07-03T10:50:14;28.65;;;7.25;;
64500;SDS011;50874;24.150;-110.320;2022-07-03T10:52:48;29.75;;;7.68;;
64500;SDS011;50874;24.150;-110.320;2022-07-03T10:55:16;28.70;;;8.40;;
64500;SDS011;50874;24.150;-110.320;2022-07-03T10:58:06;33.15;;;7.50;;
64500;SDS011;50874;24.150;-110.320;2022-07-03T11:00:54;30.33;;;8.32;;
64500;SDS011;50874;24.150;-110.320;2022-07-03T11:06:19;34.13;;;9.43;;
64500;SDS011;50874;24.150;-110.320;2022-07-03T11:09:01;33.63;;;7.65;;
64500;SDS011;50874;24.150;-110.320;2022-07-03T11:11:42;34.38;;;8.68;;
64500;SDS011;50874;24.150;-110.320;2022-07-03T11:14:23;32.80;;;8.60;;
64500;SDS011;50874;24.150;-110.320;2022-07-03T11:19:46;40.42;;;10.35;;
64500;SDS011;50874;24.150;-110.320;2022-07-03T11:22:57;36.60;;;9.68;;
64500;SDS011;50874;24.150;-110.320;2022-07-03T11:25:41;27.95;;;7.90;;
64500;SDS011;50874;24.150;-110.320;2022-07-03T11:38:45;30.90;;;7.43;;
64500;SDS011;50874;24.150;-110.320;2022-07-03T11:41:14;32.00;;;8.93;;
64500;SDS011;50874;24.150;-110.320;2022-07-03T11:43:52;29.92;;;7.65;;
64500;SDS011;50874;24.150;-110.320;2022-07-03T11:46:21;31.55;;;8.63;;
64500;SDS011;50874;24.150;-110.320;2022-07-03T11:48:50;31.73;;;8.40;;
64500;SDS011;50874;24.150;-110.320;2022-07-03T11:51:34;25.85;;;7.30;;
64500;SDS011;50874;24.150;-110.320;2022-07-03T11:54:01;33.40;;;8.68;;
64500;SDS011;50874;24.150;-110.320;2022-07-03T11:56:29;29.20;;;7.65;;
64500;SDS011;50874;24.150;-110.320;2022-07-03T11:58:56;30.35;;;8.75;;
64500;SDS011;50874;24.150;-110.320;2022-07-03T12:03:51;29.98;;;8.27;;
64500;SDS011;50874;24.150;-110.320;2022-07-03T12:19:51;33.70;;;8.77;;
64500;SDS011;50874;24.150;-110.320;2022-07-03T12:25:10;34.97;;;7.90;;
64500;SDS011;50874;24.150;-110.320;2022-07-03T12:27:41;29.98;;;8.90;;
64500;SDS011;50874;24.150;-110.320;2022-07-03T12:30:10;31.17;;;8.98;;
64500;SDS011;50874;24.150;-110.320;2022-07-03T12:32:45;39.67;;;9.77;;
64500;SDS011;50874;24.150;-110.320;2022-07-03T12:35:12;32.60;;;8.70;;
64500;SDS011;50874;24.150;-110.320;2022-07-03T12:37:41;40.40;;;9.27;;
64500;SDS011;50874;24.150;-110.320;2022-07-03T12:40:11;35.08;;;9.02;;
64500;SDS011;50874;24.150;-110.320;2022-07-03T12:42:48;48.03;;;9.30;;
64500;SDS011;50874;24.150;-110.320;2022-07-03T12:45:17;31.60;;;8.00;;
64500;SDS011;50874;24.150;-110.320;2022-07-03T12:47:45;26.23;;;7.65;;
64500;SDS011;50874;24.150;-110.320;2022-07-03T12:50:11;28.50;;;7.30;;
64500;SDS011;50874;24.150;-110.320;2022-07-03T12:52:50;35.17;;;8.70;;
64500;SDS011;50874;24.150;-110.320;2022-07-03T12:55:22;36.08;;;8.77;;
64500;SDS011;50874;24.150;-110.320;2022-07-03T13:01:00;38.60;;;9.43;;
64500;SDS011;50874;24.150;-110.320;2022-07-03T13:03:31;33.95;;;8.77;;
64500;SDS011;50874;24.150;-110.320;2022-07-03T13:06:11;27.25;;;8.07;;
64500;SDS011;50874;24.150;-110.320;2022-07-03T13:08:48;39.10;;;9.25;;
64500;SDS011;50874;24.150;-110.320;2022-07-03T13:11:24;27.17;;;8.13;;
64500;SDS011;50874;24.150;-110.320;2022-07-03T13:14:12;38.35;;;8.55;;
64500;SDS011;50874;24.150;-110.320;2022-07-03T13:16:47;36.67;;;8.90;;
64500;SDS011;50874;24.150;-110.320;2022-07-03T13:19:24;38.40;;;7.97;;
64500;SDS011;50874;24.150;-110.320;2022-07-03T13:21:54;29.10;;;8.75;;
64500;SDS011;50874;24.150;-110.320;2022-07-03T13:24:21;33.65;;;8.23;;
64500;SDS011;50874;24.150;-110.320;2022-07-03T13:26:48;26.42;;;8.05;;
64500;SDS011;50874;24.150;-110.320;2022-07-03T13:29:16;28.17;;;8.02;;
64500;SDS011;50874;24.150;-110.320;2022-07-03T13:31:42;28.75;;;8.30;;
64500;SDS011;50874;24.150;-110.320;2022-07-03T13:34:09;28.75;;;7.65;;
64500;SDS011;50874;24.150;-110.320;2022-07-03T13:36:35;30.40;;;8.73;;
64500;SDS011;50874;24.150;-110.320;2022-07-03T13:39:02;28.15;;;8.32;;
64500;SDS011;50874;24.150;-110.320;2022-07-03T13:41:28;29.48;;;6.95;;
64500;SDS011;50874;24.150;-110.320;2022-07-03T13:43:55;23.17;;;7.55;;
64500;SDS011;50874;24.150;-110.320;2022-07-03T13:46:22;32.28;;;6.57;;
64500;SDS011;50874;24.150;-110.320;2022-07-03T13:48:49;26.55;;;7.00;;
64500;SDS011;50874;24.150;-110.320;2022-07-03T13:51:16;27.98;;;7.63;;
64500;SDS011;50874;24.150;-110.320;2022-07-03T13:53:44;22.38;;;7.50;;
64500;SDS011;50874;24.150;-110.320;2022-07-03T13:56:10;22.63;;;6.78;;
64500;SDS011;50874;24.150;-110.320;2022-07-03T13:58:39;32.13;;;7.50;;
64500;SDS011;50874;24.150;-110.320;2022-07-03T14:01:05;25.73;;;6.82;;
64500;SDS011;50874;24.150;-110.320;2022-07-03T14:03:31;25.35;;;7.00;;
64500;SDS011;50874;24.150;-110.320;2022-07-03T14:05:58;23.10;;;7.57;;
64500;SDS011;50874;24.150;-110.320;2022-07-03T14:08:25;26.48;;;6.60;;
64500;SDS011;50874;24.150;-110.320;2022-07-03T14:10:51;21.73;;;6.10;;
64500;SDS011;50874;24.150;-110.320;2022-07-03T14:13:18;27.13;;;6.50;;
64500;SDS011;50874;24.150;-110.320;2022-07-03T14:15:44;21.67;;;5.68;;
64500;SDS011;50874;24.150;-110.320;2022-07-03T14:18:11;21.25;;;6.47;;
64500;SDS011;50874;24.150;-110.320;2022-07-03T14:20:37;22.80;;;6.00;;
64500;SDS011;50874;24.150;-110.320;2022-07-03T14:23:04;25.90;;;7.53;;
64500;SDS011;50874;24.150;-110.320;2022-07-03T14:25:30;22.25;;;6.32;;
64500;SDS011;50874;24.150;-110.320;2022-07-03T14:27:57;26.25;;;6.95;;
64500;SDS011;50874;24.150;-110.320;2022-07-03T14:30:41;28.77;;;7.13;;
64500;SDS011;50874;24.150;-110.320;2022-07-03T14:33:26;17.77;;;5.63;;
64500;SDS011;50874;24.150;-110.320;2022-07-03T14:35:52;23.73;;;6.15;;
64500;SDS011;50874;24.150;-110.320;2022-07-03T14:38:19;29.02;;;6.63;;
64500;SDS011;50874;24.150;-110.320;2022-07-03T14:40:46;22.23;;;6.50;;
64500;SDS011;50874;24.150;-110.320;2022-07-03T14:43:12;22.60;;;5.82;;
64500;SDS011;50874;24.150;-110.320;2022-07-03T14:45:39;22.52;;;5.80;;
64500;SDS011;50874;24.150;-110.320;2022-07-03T14:48:06;21.10;;;5.13;;
64500;SDS011;50874;24.150;-110.320;2022-07-03T14:50:33;19.77;;;5.70;;
64500;SDS011;50874;24.150;-110.320;2022-07-03T14:52:59;18.75;;;5.30;;
64500;SDS011;50874;24.150;-110.320;2022-07-03T14:55:28;17.80;;;5.35;;
64500;SDS011;50874;24.150;-110.320;2022-07-03T14:58:04;19.33;;;4.97;;
64500;SDS011;50874;24.150;-110.320;2022-07-03T15:00:54;15.55;;;5.07;;
64500;SDS011;50874;24.150;-110.320;2022-07-03T15:03:28;15.85;;;4.60;;
64500;SDS011;50874;24.150;-110.320;2022-07-03T15:05:56;15.82;;;5.45;;
64500;SDS011;50874;24.150;-110.320;2022-07-03T15:08:29;17.63;;;5.25;;
64500;SDS011;50874;24.150;-110.320;2022-07-03T15:14:20;18.42;;;4.93;;
64500;SDS011;50874;24.150;-110.320;2022-07-03T15:16:48;18.48;;;5.18;;
64500;SDS011;50874;24.150;-110.320;2022-07-03T15:19:16;15.07;;;4.57;;
64500;SDS011;50874;24.150;-110.320;2022-07-03T15:21:47;16.02;;;5.43;;
64500;SDS011;50874;24.150;-110.320;2022-07-03T15:24:14;12.50;;;5.05;;
64500;SDS011;50874;24.150;-110.320;2022-07-03T15:26:44;14.23;;;4.20;;
64500;SDS011;50874;24.150;-110.320;2022-07-03T15:29:12;19.33;;;5.18;;
64500;SDS011;50874;24.150;-110.320;2022-07-03T15:31:40;10.07;;;4.60;;
64500;SDS011;50874;24.150;-110.320;2022-07-03T15:34:06;17.38;;;5.68;;
64500;SDS011;50874;24.150;-110.320;2022-07-03T15:36:38;18.13;;;5.10;;
64500;SDS011;50874;24.150;-110.320;2022-07-03T15:39:13;16.27;;;5.53;;
64500;SDS011;50874;24.150;-110.320;2022-07-03T15:44:42;17.60;;;5.30;;
64500;SDS011;50874;24.150;-110.320;2022-07-03T15:52:23;20.77;;;5.97;;